createdAt,value
2023-04-02T00:00:12.059Z,98852.22
2023-04-02T00:03:15.565Z,98853.84
2023-04-02T00:06:45.262Z,98857.41
2023-04-02T00:09:48.351Z,98853.59
2023-04-02T00:13:09.475Z,98858.97
2023-04-02T00:16:23.911Z,98855.44
2023-04-02T00:20:06.684Z,98859.66
2023-04-02T00:23:12.847Z,98856.97
2023-04-02T00:26:36.794Z,98857.72
2023-04-02T00:29:54.240Z,98868.47
2023-04-02T00:32:58.204Z,98863.19
2023-04-02T00:36:01.147Z,98867.44
2023-04-02T00:39:11.170Z,98864.38
2023-04-02T00:42:13.761Z,98865.13
2023-04-02T00:45:25.200Z,98870.97
2023-04-02T00:48:43.776Z,98859.81
2023-04-02T00:51:55.469Z,98870.63
2023-04-02T00:55:05.998Z,98866.03
2023-04-02T00:58:41.771Z,98863.72
2023-04-02T01:01:44.961Z,98857.94
2023-04-02T01:04:59.204Z,98862.59
2023-04-02T01:08:17.731Z,98859.88
2023-04-02T01:11:22.953Z,98858.34
2023-04-02T01:14:36.753Z,98859.13
2023-04-02T01:18:18.720Z,98862.25
2023-04-02T01:21:33.497Z,98859.16
2023-04-02T01:24:39.419Z,98868.81
2023-04-02T01:27:47.879Z,98866.13
2023-04-02T01:30:56.530Z,98870.41
2023-04-02T01:34:01.331Z,98870.34
2023-04-02T01:37:23.880Z,98863.81
2023-04-02T01:40:32.141Z,98872.69
2023-04-02T01:43:50.654Z,98874.59
2023-04-02T01:46:53.882Z,98878.09
2023-04-02T01:50:22.738Z,98870.78
2023-04-02T01:53:28.193Z,98870.00
2023-04-02T01:56:31.745Z,98879.28
2023-04-02T01:59:35.942Z,98872.75
2023-04-02T02:02:40.242Z,98873.87
2023-04-02T02:05:43.905Z,98878.16
2023-04-02T02:08:55.783Z,98870.81
2023-04-02T02:11:59.985Z,98874.31
2023-04-02T02:15:03.523Z,98881.63
2023-04-02T02:18:08.124Z,98880.50
2023-04-02T02:21:13.370Z,98877.38
2023-04-02T02:24:27.335Z,98881.66
2023-04-02T02:27:37.986Z,98888.22
2023-04-02T02:30:50.823Z,98885.91
2023-04-02T02:34:02.522Z,98885.91
2023-04-02T02:37:15.640Z,98893.19
2023-04-02T02:40:30.636Z,98893.56
2023-04-02T02:43:34.348Z,98892.44
2023-04-02T02:46:46.988Z,98893.56
2023-04-02T02:49:53.274Z,98902.44
2023-04-02T02:52:59.249Z,98894.31
2023-04-02T02:56:04.097Z,98902.34
2023-04-02T02:59:09.321Z,98903.87
2023-04-02T03:02:12.619Z,98905.81
2023-04-02T03:05:18.319Z,98898.09
2023-04-02T03:08:30.593Z,98899.66
2023-04-02T03:11:39.507Z,98905.84
2023-04-02T03:14:55.973Z,98906.59
2023-04-02T03:18:12.179Z,98910.81
2023-04-02T03:21:40.172Z,98916.19
2023-04-02T03:25:07.065Z,98917.28
2023-04-02T03:28:17.554Z,98911.06
2023-04-02T03:31:26.613Z,98917.53
2023-04-02T03:34:35.800Z,98915.22
2023-04-02T03:37:39.047Z,98917.94
2023-04-02T03:40:46.966Z,98914.41
2023-04-02T03:43:56.748Z,98920.97
2023-04-02T03:47:09.365Z,98917.13
2023-04-02T03:50:18.469Z,98915.16
2023-04-02T03:53:26.666Z,98914.41
2023-04-02T03:56:40.017Z,98921.84
2023-04-02T03:59:57.954Z,98918.72
2023-04-02T04:03:14.035Z,98926.00
2023-04-02T04:06:24.857Z,98925.22
2023-04-02T04:09:35.569Z,98920.81
2023-04-02T04:12:44.406Z,98927.41
2023-04-02T04:15:55.328Z,98931.25
2023-04-02T04:19:08.258Z,98933.16
2023-04-02T04:22:30.651Z,98944.66
2023-04-02T04:25:35.215Z,98950.75
2023-04-02T04:28:58.799Z,98947.94
2023-04-02T04:32:27.458Z,98953.31
2023-04-02T04:35:35.225Z,98959.69
2023-04-02T04:38:40.962Z,98961.22
2023-04-02T04:41:46.066Z,98969.34
2023-04-02T04:45:24.782Z,98974.44
2023-04-02T04:48:36.450Z,98977.22
2023-04-02T04:51:45.373Z,98974.59
2023-04-02T04:54:49.387Z,98969.25
2023-04-02T04:57:58.686Z,98970.84
2023-04-02T05:01:07.385Z,98980.19
2023-04-02T05:04:14.994Z,98979.84
2023-04-02T05:07:31.017Z,98978.75
2023-04-02T05:10:43.347Z,98976.81
2023-04-02T05:13:57.265Z,98986.13
2023-04-02T05:17:08.054Z,98985.78
2023-04-02T05:20:20.651Z,98980.06
2023-04-02T05:23:27.661Z,98984.28
2023-04-02T05:26:46.553Z,98987.41
2023-04-02T05:30:08.360Z,98990.56
2023-04-02T05:33:21.350Z,98994.44
2023-04-02T05:36:26.549Z,98997.91
2023-04-02T05:39:29.938Z,99004.97
2023-04-02T05:42:36.047Z,99004.13
2023-04-02T05:45:41.773Z,99015.44
2023-04-02T05:48:45.414Z,99012.13
2023-04-02T05:51:51.389Z,99021.41
2023-04-02T05:55:07.244Z,99017.72
2023-04-02T05:58:34.754Z,99015.38
2023-04-02T06:01:56.292Z,99016.25
2023-04-02T06:05:21.529Z,99015.56
2023-04-02T06:08:31.670Z,99010.53
2023-04-02T06:11:42.515Z,99014.78
2023-04-02T06:14:47.094Z,99012.53
2023-04-02T06:17:59.085Z,99015.56
2023-04-02T06:21:03.414Z,99016.00
2023-04-02T06:24:07.242Z,99019.56
2023-04-02T06:27:14.700Z,99028.44
2023-04-02T06:30:37.543Z,99023.38
2023-04-02T06:33:41.021Z,99031.44
2023-04-02T06:36:45.514Z,99027.19
2023-04-02T06:39:48.997Z,99026.84
2023-04-02T06:42:59.646Z,99035.38
2023-04-02T06:46:14.425Z,99037.34
2023-04-02T06:49:38.141Z,99036.94
2023-04-02T06:52:51.303Z,99042.72
2023-04-02T06:56:01.406Z,99040.81
2023-04-02T06:59:07.566Z,99043.94
2023-04-02T07:02:28.626Z,99045.88
2023-04-02T07:05:32.253Z,99040.06
2023-04-02T07:08:35.580Z,99042.34
2023-04-02T07:11:41.362Z,99056.31
2023-04-02T07:14:48.558Z,99052.06
2023-04-02T07:17:52.431Z,99056.31
2023-04-02T07:20:56.820Z,99054.00
2023-04-02T07:24:01.289Z,99058.63
2023-04-02T07:27:04.621Z,99065.91
2023-04-02T07:30:08.417Z,99065.13
2023-04-02T07:33:19.078Z,99065.50
2023-04-02T07:36:23.780Z,99056.81
2023-04-02T07:39:27.090Z,99060.72
2023-04-02T07:42:29.977Z,99065.69
2023-04-02T07:45:33.644Z,99069.94
2023-04-02T07:48:36.772Z,99077.81
2023-04-02T07:51:39.931Z,99071.22
2023-04-02T07:54:44.001Z,99073.59
2023-04-02T07:57:55.897Z,99077.81
2023-04-02T08:00:59.996Z,99076.97
2023-04-02T08:04:05.030Z,99080.47
2023-04-02T08:07:08.013Z,99078.56
2023-04-02T08:10:12.471Z,99071.22
2023-04-02T08:13:16.318Z,99085.25
2023-04-02T08:16:19.638Z,99081.22
2023-04-02T08:19:22.782Z,99078.09
2023-04-02T08:22:27.738Z,99084.38
2023-04-02T08:25:31.021Z,99088.53
2023-04-02T08:28:34.506Z,99085.41
2023-04-02T08:31:38.557Z,99080.38
2023-04-02T08:34:45.266Z,99089.38
2023-04-02T08:37:50.254Z,99092.88
2023-04-02T08:40:57.206Z,99091.66
2023-04-02T08:44:32.507Z,99099.06
2023-04-02T08:47:38.101Z,99093.16
2023-04-02T08:50:43.318Z,99094.53
2023-04-02T08:53:46.677Z,99097.47
2023-04-02T08:56:59.304Z,99097.47
2023-04-02T09:00:24.063Z,99104.16
2023-04-02T09:03:40.523Z,99108.00
2023-04-02T09:06:44.390Z,99105.56
2023-04-02T09:09:50.099Z,99110.81
2023-04-02T09:12:54.101Z,99110.75
2023-04-02T09:16:03.046Z,99109.81
2023-04-02T09:19:23.799Z,99113.59
2023-04-02T09:22:28.781Z,99115.50
2023-04-02T09:25:32.408Z,99125.09
2023-04-02T09:28:35.345Z,99122.09
2023-04-02T09:31:46.842Z,99119.81
2023-04-02T09:34:49.593Z,99120.78
2023-04-02T09:38:07.891Z,99127.38
2023-04-02T09:41:21.129Z,99128.38
2023-04-02T09:44:26.757Z,99135.75
2023-04-02T09:47:32.401Z,99137.31
2023-04-02T09:50:36.176Z,99134.69
2023-04-02T09:53:46.496Z,99131.63
2023-04-02T09:57:24.880Z,99133.16
2023-04-02T10:00:32.237Z,99139.97
2023-04-02T10:03:36.777Z,99140.81
2023-04-02T10:06:49.617Z,99145.84
2023-04-02T10:10:21.380Z,99136.50
2023-04-02T10:13:35.362Z,99143.28
2023-04-02T10:16:50.093Z,99138.88
2023-04-02T10:19:56.701Z,99150.16
2023-04-02T10:23:01.288Z,99144.62
2023-04-02T10:26:20.459Z,99135.22
2023-04-02T10:29:29.474Z,99134.22
2023-04-02T10:32:54.823Z,99134.78
2023-04-02T10:36:02.793Z,99136.66
2023-04-02T10:39:24.866Z,99144.22
2023-04-02T10:42:37.236Z,99152.38
2023-04-02T10:45:54.561Z,99145.75
2023-04-02T10:49:06.845Z,99149.88
2023-04-02T10:52:28.070Z,99140.78
2023-04-02T10:55:34.806Z,99142.84
2023-04-02T10:58:43.066Z,99143.00
2023-04-02T11:01:48.510Z,99153.38
2023-04-02T11:08:01.592Z,99144.19
2023-04-02T11:11:16.691Z,99136.97
2023-04-02T11:14:31.224Z,99135.28
2023-04-02T11:17:34.319Z,99143.47
2023-04-02T11:20:59.307Z,99157.13
2023-04-02T11:24:03.163Z,99137.84
2023-04-02T11:27:12.523Z,99144.06
2023-04-02T11:30:25.384Z,99146.06
2023-04-02T11:33:38.211Z,99144.94
2023-04-02T11:36:54.875Z,99139.97
2023-04-02T11:39:59.818Z,99143.88
2023-04-02T11:43:34.024Z,99136.44
2023-04-02T11:46:42.460Z,99137.53
2023-04-02T11:50:01.709Z,99134.19
2023-04-02T11:53:11.777Z,99143.81
2023-04-02T11:56:39.563Z,99139.84
2023-04-02T11:59:49.786Z,99125.41
2023-04-02T12:03:19.134Z,99126.44
2023-04-02T12:06:28.680Z,99127.41
2023-04-02T12:09:37.152Z,99116.87
2023-04-02T12:12:40.665Z,99120.03
2023-04-02T12:15:48.064Z,99125.44
2023-04-02T12:18:56.108Z,99114.84
2023-04-02T12:21:59.592Z,99116.63
2023-04-02T12:25:06.492Z,99123.66
2023-04-02T12:28:09.773Z,99107.56
2023-04-02T12:31:17.889Z,99109.41
2023-04-02T12:34:23.498Z,99108.13
2023-04-02T12:37:29.189Z,99115.13
2023-04-02T12:40:32.235Z,99104.25
2023-04-02T12:43:38.412Z,99089.69
2023-04-02T12:46:42.257Z,99096.13
2023-04-02T12:49:45.926Z,99084.28
2023-04-02T12:52:55.069Z,99090.66
2023-04-02T12:55:58.571Z,99080.38
2023-04-02T12:59:01.970Z,99084.91
2023-04-02T13:02:22.203Z,99077.66
2023-04-02T13:05:34.074Z,99078.78
2023-04-02T13:08:42.698Z,99090.69
2023-04-02T13:11:45.979Z,99074.59
2023-04-02T13:14:53.837Z,99067.28
2023-04-02T13:18:08.083Z,99076.09
2023-04-02T13:21:19.150Z,99084.50
2023-04-02T13:24:31.741Z,99075.25
2023-04-02T13:27:35.288Z,99084.53
2023-04-02T13:30:38.967Z,99059.19
2023-04-02T13:33:44.343Z,99080.72
2023-04-02T13:36:47.908Z,99059.03
2023-04-02T13:39:51.164Z,99075.12
2023-04-02T13:42:54.274Z,99080.94
2023-04-02T13:45:58.759Z,99071.63
2023-04-02T13:49:02.247Z,99074.97
2023-04-02T13:52:08.166Z,99068.78
2023-04-02T13:55:12.627Z,99075.72
2023-04-02T13:58:16.244Z,99075.00
2023-04-02T14:01:21.408Z,99063.56
2023-04-02T14:04:28.789Z,99071.44
2023-04-02T14:08:03.766Z,99070.31
2023-04-02T14:11:17.598Z,99076.50
2023-04-02T14:14:42.605Z,99080.38
2023-04-02T14:18:09.829Z,99082.62
2023-04-02T14:21:29.270Z,99087.59
2023-04-02T14:24:35.676Z,99094.75
2023-04-02T14:28:03.470Z,99100.22
2023-04-02T14:31:13.391Z,99101.34
2023-04-02T14:34:27.174Z,99107.00
2023-04-02T14:37:50.730Z,99104.00
2023-04-02T14:41:19.973Z,99105.38
2023-04-02T14:44:26.741Z,99105.94
2023-04-02T14:47:47.021Z,99126.41
2023-04-02T14:50:55.047Z,99111.50
2023-04-02T14:54:07.644Z,99114.75
2023-04-02T14:57:19.281Z,99119.44
2023-04-02T15:00:35.208Z,99104.84
2023-04-02T15:04:14.280Z,99114.84
2023-04-02T15:07:23.774Z,99123.47
2023-04-02T15:10:31.211Z,99119.31
2023-04-02T15:13:42.637Z,99119.38
2023-04-02T15:16:53.648Z,99122.03
2023-04-02T15:20:08.156Z,99129.56
2023-04-02T15:23:15.489Z,99123.56
2023-04-02T15:26:47.111Z,99130.28
2023-04-02T15:30:04.275Z,99141.16
2023-04-02T15:33:27.767Z,99139.31
2023-04-02T15:36:42.245Z,99147.06
2023-04-02T15:40:01.067Z,99145.22
2023-04-02T15:43:20.627Z,99161.28
2023-04-02T15:47:09.373Z,99163.41
2023-04-02T15:50:46.088Z,99174.56
2023-04-02T15:54:01.019Z,99166.38
2023-04-02T15:57:30.537Z,99165.53
2023-04-02T16:01:10.344Z,99174.22
2023-04-02T16:04:27.331Z,99197.75
2023-04-02T16:08:00.984Z,99183.50
2023-04-02T16:11:11.475Z,99195.53
2023-04-02T16:14:35.896Z,99206.75
2023-04-02T16:17:43.187Z,99201.84
2023-04-02T16:20:48.301Z,99200.41
2023-04-02T16:23:52.685Z,99198.25
2023-04-02T16:26:57.301Z,99213.28
2023-04-02T16:30:07.867Z,99211.50
2023-04-02T16:33:33.615Z,99214.72
2023-04-02T16:36:39.197Z,99228.25
2023-04-02T16:40:03.600Z,99246.03
2023-04-02T16:43:14.075Z,99248.13
2023-04-02T16:46:40.243Z,99254.69
2023-04-02T16:50:04.853Z,99258.38
2023-04-02T16:53:20.829Z,99271.91
2023-04-02T16:56:35.855Z,99264.22
2023-04-02T17:00:12.892Z,99281.62
2023-04-02T17:03:29.366Z,99280.88
2023-04-02T17:06:34.903Z,99282.94
2023-04-02T17:09:53.419Z,99276.06
2023-04-02T17:13:21.258Z,99292.66
2023-04-02T17:16:37.934Z,99306.22
2023-04-02T17:19:43.680Z,99315.06
2023-04-02T17:22:50.349Z,99317.53
2023-04-02T17:25:58.164Z,99326.00
2023-04-02T17:29:08.376Z,99335.09
2023-04-02T17:32:21.638Z,99347.91
2023-04-02T17:35:56.997Z,99360.75
2023-04-02T17:39:08.982Z,99369.06
2023-04-02T17:42:13.766Z,99366.81
2023-04-02T17:45:24.281Z,99357.25
2023-04-02T17:49:00.807Z,99379.06
2023-04-02T17:52:22.870Z,99378.41
2023-04-02T17:55:41.412Z,99387.47
2023-04-02T17:58:59.456Z,99398.22
2023-04-02T18:02:25.563Z,99413.78
2023-04-02T18:05:55.040Z,99420.03
2023-04-02T18:09:17.628Z,99428.38
2023-04-02T18:12:27.686Z,99437.03
2023-04-02T18:15:40.419Z,99441.75
2023-04-02T18:18:55.662Z,99449.38
2023-04-02T18:22:21.812Z,99458.50
2023-04-02T18:25:44.417Z,99451.25
2023-04-02T18:28:51.272Z,99464.75
2023-04-02T18:32:03.358Z,99470.22
2023-04-02T18:35:19.336Z,99476.50
2023-04-02T18:38:28.662Z,99478.66
2023-04-02T18:41:39.463Z,99482.72
2023-04-02T18:45:09.243Z,99481.00
2023-04-02T18:48:34.945Z,99494.38
2023-04-02T18:51:41.636Z,99521.41
2023-04-02T18:55:01.124Z,99525.53
2023-04-02T18:58:22.021Z,99532.47
2023-04-02T19:05:25.197Z,99549.53
2023-04-02T19:08:48.969Z,99561.53
2023-04-02T19:11:55.612Z,99556.84
2023-04-02T19:15:00.426Z,99566.34
2023-04-02T19:18:04.723Z,99559.03
2023-04-02T19:21:34.568Z,99567.78
2023-04-02T19:25:06.085Z,99568.97
2023-04-02T19:28:39.284Z,99580.63
2023-04-02T19:32:12.527Z,99588.34
2023-04-02T19:35:36.569Z,99596.34
2023-04-02T19:38:50.471Z,99599.56
2023-04-02T19:42:01.283Z,99595.84
2023-04-02T19:45:22.621Z,99596.53
2023-04-02T19:48:30.124Z,99599.03
2023-04-02T19:51:34.230Z,99601.03
2023-04-02T19:54:39.650Z,99597.66
2023-04-02T19:57:47.047Z,99606.50
2023-04-02T20:00:52.402Z,99599.03
2023-04-02T20:03:57.435Z,99608.34
2023-04-02T20:07:02.964Z,99623.44
2023-04-02T20:10:08.660Z,99613.63
2023-04-02T20:13:13.492Z,99617.03
2023-04-02T20:16:22.812Z,99624.88
2023-04-02T20:19:26.664Z,99623.62
2023-04-02T20:22:30.768Z,99633.69
2023-04-02T20:25:34.580Z,99638.47
2023-04-02T20:28:38.937Z,99631.56
2023-04-02T20:31:42.598Z,99640.94
2023-04-02T20:34:47.270Z,99627.25
2023-04-02T20:37:50.998Z,99640.06
2023-04-02T20:40:54.999Z,99644.50
2023-04-02T20:43:59.559Z,99651.19
2023-04-02T20:47:02.856Z,99652.13
2023-04-02T20:50:07.594Z,99664.22
2023-04-02T20:53:12.219Z,99661.00
2023-04-02T20:56:16.875Z,99666.22
2023-04-02T20:59:20.469Z,99660.69
2023-04-02T21:02:23.550Z,99663.47
2023-04-02T21:05:26.701Z,99666.91
2023-04-02T21:08:29.920Z,99665.63
2023-04-02T21:11:33.295Z,99664.59
2023-04-02T21:14:39.088Z,99671.91
2023-04-02T21:17:42.325Z,99673.69
2023-04-02T21:20:45.398Z,99677.12
2023-04-02T21:23:54.306Z,99684.94
2023-04-02T21:26:57.209Z,99689.91
2023-04-02T21:30:00.487Z,99703.06
2023-04-02T21:33:03.457Z,99705.78
2023-04-02T21:36:34.869Z,99701.66
2023-04-02T21:39:37.783Z,99704.69
2023-04-02T21:42:42.114Z,99703.25
2023-04-02T21:45:45.112Z,99699.91
2023-04-02T21:48:48.866Z,99707.75
2023-04-02T21:51:52.284Z,99713.25
2023-04-02T21:54:55.675Z,99707.44
2023-04-02T21:57:58.631Z,99715.84
2023-04-02T22:01:02.194Z,99712.91
2023-04-02T22:04:07.428Z,99719.41
2023-04-02T22:07:10.380Z,99713.91
2023-04-02T22:10:13.557Z,99717.72
2023-04-02T22:13:16.459Z,99729.34
2023-04-02T22:16:22.064Z,99724.44
2023-04-02T22:19:24.946Z,99736.53
2023-04-02T22:22:28.703Z,99727.69
2023-04-02T22:25:31.721Z,99738.34
2023-04-02T22:28:36.231Z,99733.16
2023-04-02T22:31:39.289Z,99735.75
2023-04-02T22:34:45.814Z,99737.56
2023-04-02T22:37:48.819Z,99741.03
2023-04-02T22:40:52.048Z,99742.16
2023-04-02T22:43:56.358Z,99741.16
2023-04-02T22:46:59.616Z,99747.19
2023-04-02T22:50:02.693Z,99749.97
2023-04-02T22:53:06.165Z,99743.09
2023-04-02T22:56:14.323Z,99754.34
2023-04-02T22:59:17.480Z,99748.09
2023-04-02T23:02:20.225Z,99754.47
2023-04-02T23:05:23.297Z,99761.19
2023-04-02T23:08:26.139Z,99761.00
2023-04-02T23:11:29.314Z,99765.44
2023-04-02T23:14:33.492Z,99765.78
2023-04-02T23:17:38.573Z,99773.88
2023-04-02T23:20:41.553Z,99771.41
2023-04-02T23:23:47.131Z,99763.69
2023-04-02T23:26:51.301Z,99774.66
2023-04-02T23:29:54.543Z,99774.44
2023-04-02T23:32:57.553Z,99773.66
2023-04-02T23:36:01.170Z,99775.19
2023-04-02T23:39:10.577Z,99775.09
2023-04-02T23:42:13.849Z,99778.47
2023-04-02T23:45:17.672Z,99770.94
2023-04-02T23:48:20.898Z,99780.03
2023-04-02T23:51:25.063Z,99780.03
2023-04-02T23:54:28.679Z,99774.31
2023-04-02T23:57:31.658Z,99777.22
